createdAt,value
2018-11-12T00:01:50.911Z,7.80
2018-11-12T00:04:19.015Z,7.67
2018-11-12T00:06:47.219Z,7.87
2018-11-12T00:09:15.386Z,8.27
2018-11-12T00:11:43.550Z,8.20
2018-11-12T00:14:11.982Z,8.03
2018-11-12T00:16:40.153Z,9.10
2018-11-12T00:19:08.565Z,10.30
2018-11-12T00:21:36.720Z,9.67
2018-11-12T00:24:18.761Z,8.63
2018-11-12T00:26:46.998Z,8.47
2018-11-12T00:29:15.147Z,11.13
2018-11-12T00:31:43.268Z,10.60
2018-11-12T00:34:11.486Z,9.67
2018-11-12T00:36:39.691Z,9.80
2018-11-12T00:39:09.883Z,9.83
2018-11-12T00:41:38.361Z,9.40
2018-11-12T00:44:06.610Z,8.50
2018-11-12T00:46:34.928Z,9.27
2018-11-12T00:49:03.066Z,9.20
2018-11-12T00:51:31.255Z,8.50
2018-11-12T00:53:59.415Z,10.20
2018-11-12T00:56:27.567Z,8.17
2018-11-12T00:58:55.693Z,9.43
2018-11-12T01:01:23.837Z,9.70
2018-11-12T01:03:52.022Z,9.60
2018-11-12T01:06:20.087Z,9.83
2018-11-12T01:08:48.188Z,8.90
2018-11-12T01:11:16.858Z,9.60
2018-11-12T01:13:45.000Z,9.47
2018-11-12T01:16:13.296Z,9.00
2018-11-12T01:18:41.306Z,9.50
2018-11-12T01:21:10.624Z,9.97
2018-11-12T01:23:43.826Z,10.33
2018-11-12T01:26:11.999Z,10.83
2018-11-12T01:28:40.118Z,12.13
2018-11-12T01:31:08.287Z,10.63
2018-11-12T01:33:37.192Z,10.37
2018-11-12T01:36:05.704Z,10.23
2018-11-12T01:38:33.882Z,9.40
2018-11-12T01:41:02.040Z,9.50
2018-11-12T01:43:30.265Z,9.47
2018-11-12T01:45:58.383Z,8.60
2018-11-12T01:48:26.625Z,8.70
2018-11-12T01:50:54.872Z,9.77
2018-11-12T01:53:51.950Z,9.17
2018-11-12T01:56:20.114Z,9.00
2018-11-12T01:58:48.977Z,7.47
2018-11-12T02:01:17.173Z,8.17
2018-11-12T02:03:45.508Z,8.33
2018-11-12T02:06:13.602Z,7.97
2018-11-12T02:08:41.824Z,8.47
2018-11-12T02:11:10.034Z,8.60
2018-11-12T02:13:38.221Z,8.33
2018-11-12T02:16:08.373Z,8.40
2018-11-12T02:18:36.674Z,8.67
2018-11-12T02:21:05.419Z,8.60
2018-11-12T02:23:33.745Z,8.93
2018-11-12T02:26:01.965Z,9.83
2018-11-12T02:28:30.188Z,11.37
2018-11-12T02:30:58.346Z,9.97
2018-11-12T02:33:26.773Z,10.17
2018-11-12T02:35:54.819Z,13.40
2018-11-12T02:38:22.943Z,17.07
2018-11-12T02:40:51.015Z,19.97
2018-11-12T02:46:19.158Z,13.77
2018-11-12T02:48:47.250Z,9.73
2018-11-12T02:51:16.642Z,9.97
2018-11-12T02:53:45.031Z,15.03
2018-11-12T02:56:13.175Z,11.70
2018-11-12T02:58:42.662Z,9.70
2018-11-12T03:01:10.886Z,9.63
2018-11-12T03:03:39.191Z,13.03
2018-11-12T03:06:07.928Z,11.03
2018-11-12T03:08:37.042Z,9.63
2018-11-12T03:11:05.255Z,9.37
2018-11-12T03:13:33.580Z,9.23
2018-11-12T03:16:01.698Z,8.27
2018-11-12T03:18:29.877Z,8.73
2018-11-12T03:20:57.990Z,8.83
2018-11-12T03:23:36.028Z,8.07
2018-11-12T03:26:04.371Z,8.07
2018-11-12T03:28:32.502Z,7.57
2018-11-12T03:31:00.599Z,7.80
2018-11-12T03:33:29.029Z,7.37
2018-11-12T03:35:57.873Z,7.90
2018-11-12T03:38:26.075Z,8.67
2018-11-12T03:40:54.307Z,11.70
2018-11-12T03:43:22.744Z,9.20
2018-11-12T03:45:50.824Z,10.27
2018-11-12T03:48:18.941Z,9.13
2018-11-12T03:50:47.148Z,9.37
2018-11-12T03:53:20.530Z,8.20
2018-11-12T03:55:48.734Z,8.10
2018-11-12T03:58:16.873Z,7.80
2018-11-12T04:00:45.090Z,7.93
2018-11-12T04:03:13.491Z,7.87
2018-11-12T04:05:41.596Z,7.60
2018-11-12T04:08:09.778Z,7.83
2018-11-12T04:10:37.892Z,7.43
2018-11-12T04:13:15.585Z,7.47
2018-11-12T04:15:43.724Z,7.70
2018-11-12T04:18:11.917Z,8.50
2018-11-12T04:20:40.076Z,8.20
2018-11-12T04:23:08.471Z,7.00
2018-11-12T04:25:37.909Z,7.83
2018-11-12T04:28:06.139Z,7.47
2018-11-12T04:30:34.471Z,7.33
2018-11-12T04:33:03.016Z,7.97
2018-11-12T04:35:31.274Z,8.10
2018-11-12T04:37:59.606Z,8.47
2018-11-12T04:40:27.747Z,8.73
2018-11-12T04:42:56.161Z,7.97
2018-11-12T04:45:25.072Z,8.03
2018-11-12T04:47:53.618Z,8.83
2018-11-12T04:50:22.971Z,9.17
2018-11-12T04:52:56.410Z,9.07
2018-11-12T04:55:25.153Z,8.77
2018-11-12T04:57:53.331Z,9.83
2018-11-12T05:00:23.270Z,9.43
2018-11-12T05:02:51.480Z,8.17
2018-11-12T05:05:21.081Z,8.50
2018-11-12T05:07:49.257Z,8.83
2018-11-12T05:10:19.527Z,8.50
2018-11-12T05:12:53.460Z,8.30
2018-11-12T05:15:22.545Z,9.37
2018-11-12T05:17:50.688Z,9.07
2018-11-12T05:20:21.027Z,10.53
2018-11-12T05:22:49.238Z,9.90
2018-11-12T05:25:17.325Z,9.30
2018-11-12T05:27:46.544Z,10.67
2018-11-12T05:30:18.397Z,9.60
2018-11-12T05:32:46.639Z,11.47
2018-11-12T05:35:16.252Z,8.73
2018-11-12T05:37:44.870Z,12.77
2018-11-12T05:40:15.032Z,13.50
2018-11-12T05:42:43.483Z,11.00
2018-11-12T05:45:12.436Z,13.13
2018-11-12T05:47:40.682Z,10.57
2018-11-12T05:50:12.479Z,12.40
2018-11-12T05:52:46.005Z,10.83
2018-11-12T05:55:17.016Z,10.87
2018-11-12T05:57:45.608Z,10.60
2018-11-12T06:00:15.565Z,11.20
2018-11-12T06:02:43.859Z,11.47
2018-11-12T06:05:14.511Z,14.00
2018-11-12T06:07:43.214Z,18.60
2018-11-12T06:10:22.132Z,14.33
2018-11-12T06:12:51.218Z,10.83
2018-11-12T06:15:19.480Z,11.63
2018-11-12T06:17:48.502Z,15.57
2018-11-12T06:20:33.352Z,11.20
2018-11-12T06:23:01.721Z,18.07
2018-11-12T06:25:33.318Z,15.20
2018-11-12T06:28:01.477Z,24.97
2018-11-12T06:30:31.171Z,16.30
2018-11-12T06:32:59.490Z,12.00
2018-11-12T06:35:27.769Z,12.20
2018-11-12T06:37:56.369Z,15.90
2018-11-12T06:40:25.478Z,12.57
2018-11-12T06:43:08.091Z,13.40
2018-11-12T06:45:36.194Z,12.17
2018-11-12T06:48:04.513Z,13.17
2018-11-12T06:50:33.205Z,11.93
2018-11-12T06:53:02.024Z,12.53
2018-11-12T06:55:30.700Z,11.20
2018-11-12T06:57:59.738Z,12.07
2018-11-12T07:00:32.200Z,13.97
2018-11-12T07:03:00.442Z,12.43
2018-11-12T07:05:29.254Z,11.30
2018-11-12T07:07:57.462Z,12.20
2018-11-12T07:10:26.653Z,12.57
2018-11-12T07:12:55.752Z,11.97
2018-11-12T07:15:25.207Z,11.73
2018-11-12T07:17:53.479Z,11.40
2018-11-12T07:20:25.459Z,12.20
2018-11-12T07:22:55.062Z,12.40
2018-11-12T07:25:25.913Z,12.03
2018-11-12T07:27:55.312Z,12.47
2018-11-12T07:30:24.611Z,12.23
2018-11-12T07:33:22.114Z,11.33
2018-11-12T07:35:50.325Z,11.00
2018-11-12T07:38:18.492Z,10.53
2018-11-12T07:40:46.637Z,11.07
2018-11-12T07:43:14.794Z,11.13
2018-11-12T07:45:42.970Z,11.80
2018-11-12T07:48:11.157Z,11.00
2018-11-12T07:50:39.296Z,10.87
2018-11-12T07:53:07.582Z,10.40
2018-11-12T07:55:35.655Z,11.10
2018-11-12T07:58:04.025Z,11.00
2018-11-12T08:00:33.441Z,10.40
2018-11-12T08:03:09.828Z,11.17
2018-11-12T08:05:38.403Z,11.20
2018-11-12T08:08:07.156Z,10.73
2018-11-12T08:10:35.282Z,11.13
2018-11-12T08:13:32.731Z,11.30
2018-11-12T08:16:01.947Z,11.17
2018-11-12T08:18:30.168Z,11.93
2018-11-12T08:20:58.288Z,11.77
2018-11-12T08:23:26.442Z,11.53
2018-11-12T08:25:54.664Z,12.27
2018-11-12T08:28:22.824Z,11.50
2018-11-12T08:30:50.982Z,12.40
2018-11-12T08:33:19.676Z,11.90
2018-11-12T08:35:48.518Z,12.40
2018-11-12T08:38:16.709Z,12.10
2018-11-12T08:40:45.002Z,12.50
2018-11-12T08:43:12.980Z,12.03
2018-11-12T08:45:41.141Z,11.20
2018-11-12T08:48:09.269Z,11.10
2018-11-12T08:50:37.436Z,11.93
2018-11-12T08:53:05.666Z,12.27
2018-11-12T08:55:33.807Z,10.73
2018-11-12T08:58:02.969Z,11.40
2018-11-12T09:00:31.259Z,10.77
2018-11-12T09:02:59.494Z,10.73
2018-11-12T09:05:28.766Z,11.07
2018-11-12T09:07:59.117Z,11.10
2018-11-12T09:10:32.515Z,10.73
2018-11-12T09:13:00.777Z,10.30
2018-11-12T09:15:29.008Z,11.00
2018-11-12T09:17:57.270Z,10.53
2018-11-12T09:20:26.620Z,10.43
2018-11-12T09:22:55.233Z,10.63
2018-11-12T09:25:24.603Z,10.03
2018-11-12T09:27:52.767Z,10.93
2018-11-12T09:30:24.303Z,10.90
2018-11-12T09:32:52.561Z,11.37
2018-11-12T09:35:28.595Z,10.87
2018-11-12T09:37:57.651Z,11.07
2018-11-12T09:40:31.758Z,11.23
2018-11-12T09:43:00.103Z,10.43
2018-11-12T09:45:28.918Z,10.43
2018-11-12T09:47:57.200Z,10.23
2018-11-12T09:50:26.199Z,10.03
2018-11-12T09:52:55.418Z,10.47
2018-11-12T09:55:24.591Z,10.13
2018-11-12T09:57:54.435Z,9.70
2018-11-12T10:00:22.847Z,10.70
2018-11-12T10:02:51.730Z,9.60
2018-11-12T10:05:20.888Z,10.37
2018-11-12T10:08:24.589Z,9.80
2018-11-12T10:10:56.154Z,10.50
2018-11-12T10:13:30.964Z,9.93
2018-11-12T10:15:59.993Z,9.47
2018-11-12T10:18:25.628Z,9.87
2018-11-12T10:20:53.813Z,9.30
2018-11-12T10:23:22.243Z,9.67
2018-11-12T10:25:51.266Z,9.10
2018-11-12T10:28:20.739Z,8.60
2018-11-12T10:30:48.927Z,9.57
2018-11-12T10:33:17.172Z,9.40
2018-11-12T10:35:45.357Z,9.33
2018-11-12T10:38:13.638Z,8.90
2018-11-12T10:40:41.884Z,9.03
2018-11-12T10:43:10.129Z,9.13
2018-11-12T10:45:38.363Z,9.47
2018-11-12T10:48:07.316Z,9.20
2018-11-12T10:50:35.500Z,9.47
2018-11-12T10:53:04.189Z,9.03
2018-11-12T10:55:32.673Z,10.23
2018-11-12T10:58:00.666Z,10.00
2018-11-12T11:00:37.313Z,9.70
2018-11-12T11:03:13.613Z,9.87
2018-11-12T11:05:42.956Z,10.03
2018-11-12T11:08:11.109Z,10.67
2018-11-12T11:10:39.200Z,10.03
2018-11-12T11:13:07.795Z,9.57
2018-11-12T11:15:36.688Z,10.17
2018-11-12T11:18:05.757Z,10.23
2018-11-12T11:20:33.989Z,9.10
2018-11-12T11:23:31.495Z,9.17
2018-11-12T11:26:00.515Z,10.20
2018-11-12T11:28:29.340Z,9.97
2018-11-12T11:30:57.488Z,10.13
2018-11-12T11:33:25.660Z,9.63
2018-11-12T11:35:53.856Z,9.60
2018-11-12T11:38:22.099Z,10.70
2018-11-12T11:40:50.381Z,9.73
2018-11-12T11:43:18.522Z,10.43
2018-11-12T11:45:46.601Z,10.10
2018-11-12T11:48:14.879Z,9.83
2018-11-12T11:50:44.308Z,10.83
2018-11-12T11:53:13.025Z,12.90
2018-11-12T11:55:41.163Z,11.40
2018-11-12T11:58:09.306Z,10.30
2018-11-12T12:00:37.435Z,10.10
2018-11-12T12:03:05.838Z,10.27
2018-11-12T12:05:33.961Z,10.43
2018-11-12T12:08:02.082Z,10.40
2018-11-12T12:10:30.206Z,9.77
2018-11-12T12:12:59.073Z,10.13
2018-11-12T12:15:27.315Z,10.33
2018-11-12T12:17:55.485Z,9.83
2018-11-12T12:20:24.762Z,10.57
2018-11-12T12:22:53.388Z,10.03
2018-11-12T12:25:21.662Z,11.13
2018-11-12T12:27:50.033Z,10.33
2018-11-12T12:30:19.652Z,10.73
2018-11-12T12:32:48.813Z,11.13
2018-11-12T12:35:17.013Z,11.13
2018-11-12T12:37:45.797Z,10.30
2018-11-12T12:40:16.456Z,11.00
2018-11-12T12:42:44.721Z,11.23
2018-11-12T12:45:14.258Z,14.37
2018-11-12T12:47:42.918Z,14.07
2018-11-12T12:50:12.316Z,11.43
2018-11-12T12:52:40.525Z,11.20
2018-11-12T12:55:09.734Z,12.87
2018-11-12T12:57:38.117Z,11.90
2018-11-12T13:00:10.436Z,12.27
2018-11-12T13:02:39.453Z,12.03
2018-11-12T13:05:08.613Z,12.90
2018-11-12T13:07:37.832Z,12.67
2018-11-12T13:10:08.655Z,12.90
2018-11-12T13:12:36.816Z,12.10
2018-11-12T13:15:07.291Z,14.07
2018-11-12T13:17:35.445Z,11.33
2018-11-12T13:20:03.838Z,11.57
2018-11-12T13:22:31.974Z,13.03
2018-11-12T13:25:00.161Z,12.40
2018-11-12T13:27:28.321Z,11.73
2018-11-12T13:29:56.679Z,11.93
2018-11-12T13:32:25.538Z,12.40
2018-11-12T13:34:53.729Z,13.30
2018-11-12T13:37:21.889Z,14.20
2018-11-12T13:39:50.177Z,13.43
2018-11-12T13:42:18.307Z,13.57
2018-11-12T13:44:46.568Z,13.90
2018-11-12T13:47:14.768Z,14.93
2018-11-12T13:49:42.935Z,15.70
2018-11-12T13:52:11.087Z,15.47
2018-11-12T13:54:39.194Z,20.90
2018-11-12T13:57:07.383Z,17.23
2018-11-12T13:59:35.618Z,16.43
2018-11-12T14:02:03.780Z,15.57
2018-11-12T14:04:32.020Z,14.67
2018-11-12T14:07:00.211Z,13.40
2018-11-12T14:09:28.410Z,13.00
2018-11-12T14:11:56.587Z,13.00
2018-11-12T14:14:24.807Z,12.37
2018-11-12T14:16:53.057Z,12.57
2018-11-12T14:19:21.311Z,14.17
2018-11-12T14:21:49.572Z,13.80
2018-11-12T14:24:17.839Z,13.43
2018-11-12T14:26:46.059Z,14.10
2018-11-12T14:29:14.321Z,14.63
2018-11-12T14:31:42.531Z,13.47
2018-11-12T14:34:10.885Z,13.80
2018-11-12T14:36:39.456Z,12.50
2018-11-12T14:39:10.318Z,12.30
2018-11-12T14:41:39.176Z,11.60
2018-11-12T14:44:07.784Z,12.03
2018-11-12T14:46:35.926Z,12.07
2018-11-12T14:49:04.355Z,11.80
2018-11-12T14:51:32.538Z,12.50
2018-11-12T14:54:10.091Z,12.07
2018-11-12T14:56:38.270Z,11.47
2018-11-12T14:59:06.469Z,13.60
2018-11-12T15:01:34.653Z,13.53
2018-11-12T15:04:08.181Z,13.87
2018-11-12T15:06:36.389Z,13.47
2018-11-12T15:09:08.931Z,14.00
2018-11-12T15:11:37.478Z,14.33
2018-11-12T15:14:06.491Z,13.17
2018-11-12T15:16:34.686Z,13.40
2018-11-12T15:19:02.985Z,13.70
2018-11-12T15:21:31.876Z,15.70
2018-11-12T15:24:00.085Z,16.60
2018-11-12T15:26:28.775Z,19.73
2018-11-12T15:28:58.252Z,17.87
2018-11-12T15:31:26.484Z,18.07
2018-11-12T15:33:54.710Z,17.77
2018-11-12T15:36:23.032Z,18.93
2018-11-12T15:38:51.209Z,19.07
2018-11-12T15:41:19.645Z,19.83
2018-11-12T15:43:47.846Z,20.90
2018-11-12T15:46:16.082Z,18.87
2018-11-12T15:48:44.288Z,17.13
2018-11-12T15:51:12.490Z,16.30
2018-11-12T15:54:09.991Z,17.27
2018-11-12T15:56:38.310Z,19.17
2018-11-12T15:59:07.138Z,18.33
2018-11-12T16:01:35.319Z,19.43
2018-11-12T16:04:03.761Z,17.33
2018-11-12T16:06:32.018Z,18.60
2018-11-12T16:09:00.198Z,17.73
2018-11-12T16:11:28.380Z,19.00
2018-11-12T16:14:01.843Z,15.47
2018-11-12T16:16:30.370Z,16.13
2018-11-12T16:18:58.601Z,18.97
2018-11-12T16:21:27.549Z,14.93
2018-11-12T16:23:56.670Z,16.37
2018-11-12T16:26:24.805Z,15.10
2018-11-12T16:28:52.997Z,14.43
2018-11-12T16:31:21.550Z,14.40
2018-11-12T16:33:55.102Z,15.67
2018-11-12T16:36:23.323Z,14.40
2018-11-12T16:38:51.524Z,14.30
2018-11-12T16:41:19.824Z,12.97
2018-11-12T16:43:48.022Z,11.47
2018-11-12T16:46:16.178Z,16.70
2018-11-12T16:48:44.407Z,21.33
2018-11-12T16:51:12.581Z,14.17
2018-11-12T16:53:46.079Z,18.10
2018-11-12T16:56:14.946Z,16.37
2018-11-12T16:58:43.138Z,16.53
2018-11-12T17:01:11.322Z,17.90
2018-11-12T17:03:39.925Z,14.83
2018-11-12T17:06:08.099Z,14.30
2018-11-12T17:08:36.220Z,15.20
2018-11-12T17:11:05.189Z,19.23
2018-11-12T17:13:33.395Z,17.87
2018-11-12T17:16:01.589Z,15.67
2018-11-12T17:18:29.889Z,14.20
2018-11-12T17:20:58.014Z,14.73
2018-11-12T17:23:31.274Z,14.03
2018-11-12T17:25:59.498Z,13.23
2018-11-12T17:28:28.511Z,12.93
2018-11-12T17:30:56.658Z,19.57
2018-11-12T17:33:24.888Z,28.20
2018-11-12T17:35:53.091Z,25.67
2018-11-12T17:38:21.385Z,27.77
2018-11-12T17:40:49.618Z,26.63
2018-11-12T17:43:18.028Z,23.73
2018-11-12T17:45:46.114Z,23.43
2018-11-12T17:48:14.675Z,19.83
2018-11-12T17:50:42.839Z,20.80
2018-11-12T17:53:11.072Z,19.00
2018-11-12T17:55:39.276Z,19.90
2018-11-12T17:58:07.549Z,21.33
2018-11-12T18:00:39.082Z,19.10
2018-11-12T18:03:09.869Z,18.57
2018-11-12T18:05:38.077Z,19.93
2018-11-12T18:08:06.373Z,18.00
2018-11-12T18:10:34.973Z,23.27
2018-11-12T18:13:03.390Z,22.77
2018-11-12T18:15:31.560Z,20.60
2018-11-12T18:17:59.844Z,18.50
2018-11-12T18:20:28.126Z,18.17
2018-11-12T18:22:56.967Z,16.13
2018-11-12T18:25:25.246Z,19.50
2018-11-12T18:27:53.985Z,21.70
2018-11-12T18:30:31.914Z,19.40
2018-11-12T18:32:59.929Z,11.20
2018-11-12T18:35:28.152Z,10.33
2018-11-12T18:37:56.434Z,12.37
2018-11-12T18:40:29.101Z,12.27
2018-11-12T18:42:57.319Z,11.40
2018-11-12T18:45:26.517Z,11.30
2018-11-12T18:47:54.842Z,10.90
2018-11-12T18:50:25.266Z,12.57
2018-11-12T18:52:53.459Z,14.00
2018-11-12T18:55:21.678Z,15.97
2018-11-12T18:57:50.300Z,16.07
2018-11-12T19:00:22.636Z,16.80
2018-11-12T19:02:50.924Z,17.07
2018-11-12T19:05:21.232Z,16.50
2018-11-12T19:07:50.508Z,20.87
2018-11-12T19:10:22.246Z,20.37
2018-11-12T19:12:51.109Z,15.10
2018-11-12T19:15:20.841Z,16.97
2018-11-12T19:18:01.123Z,14.70
2018-11-12T19:20:29.205Z,14.43
2018-11-12T19:22:57.465Z,14.37
2018-11-12T19:25:26.541Z,15.40
2018-11-12T19:27:54.810Z,13.67
2018-11-12T19:30:24.249Z,17.27
2018-11-12T19:32:52.628Z,13.00
2018-11-12T19:35:22.080Z,13.03
2018-11-12T19:37:50.330Z,12.93
2018-11-12T19:40:19.741Z,13.70
2018-11-12T19:42:48.958Z,13.40
2018-11-12T19:45:17.137Z,13.77
2018-11-12T19:47:46.967Z,15.17
2018-11-12T19:50:17.388Z,16.70
2018-11-12T19:52:46.499Z,14.43
2018-11-12T19:55:14.975Z,19.80
2018-11-12T19:57:43.644Z,20.53
2018-11-12T20:00:14.917Z,25.13
2018-11-12T20:02:44.201Z,34.07
2018-11-12T20:05:12.425Z,30.67
2018-11-12T20:07:41.092Z,21.57
2018-11-12T20:10:11.921Z,16.30
2018-11-12T20:12:40.178Z,19.03
2018-11-12T20:15:09.496Z,16.37
2018-11-12T20:17:37.776Z,17.00
2018-11-12T20:20:10.820Z,18.20
2018-11-12T20:22:39.214Z,17.37
2018-11-12T20:25:08.376Z,14.97
2018-11-12T20:27:36.556Z,15.97
2018-11-12T20:30:07.679Z,16.00
2018-11-12T20:32:35.930Z,14.17
2018-11-12T20:35:04.491Z,15.37
2018-11-12T20:37:32.642Z,14.20
2018-11-12T20:40:00.918Z,14.27
2018-11-12T20:42:29.925Z,15.10
2018-11-12T20:44:58.169Z,13.93
2018-11-12T20:47:26.336Z,11.17
2018-11-12T20:49:54.543Z,11.30
2018-11-12T20:52:22.691Z,12.40
2018-11-12T20:54:50.892Z,10.50
2018-11-12T20:57:19.086Z,11.47
2018-11-12T20:59:47.302Z,11.10
2018-11-12T21:02:15.529Z,11.20
2018-11-12T21:04:43.736Z,11.30
2018-11-12T21:07:11.902Z,10.10
2018-11-12T21:09:40.167Z,10.73
2018-11-12T21:12:08.337Z,10.70
2018-11-12T21:14:36.534Z,10.20
2018-11-12T21:17:05.285Z,11.13
2018-11-12T21:19:33.556Z,11.10
2018-11-12T21:22:01.735Z,12.93
2018-11-12T21:24:29.871Z,13.77
2018-11-12T21:26:58.032Z,15.97
2018-11-12T21:29:26.272Z,15.30
2018-11-12T21:31:54.452Z,19.03
2018-11-12T21:34:22.708Z,17.70
2018-11-12T21:36:50.904Z,19.37
2018-11-12T21:39:19.046Z,21.97
2018-11-12T21:41:47.188Z,20.27
2018-11-12T21:44:20.360Z,15.00
2018-11-12T21:46:48.538Z,12.33
2018-11-12T21:49:16.660Z,12.43
2018-11-12T21:51:44.865Z,16.17
2018-11-12T21:54:13.323Z,18.53
2018-11-12T21:56:41.495Z,22.37
2018-11-12T21:59:09.699Z,21.43
2018-11-12T22:01:37.934Z,19.90
2018-11-12T22:04:07.734Z,18.70
2018-11-12T22:06:35.828Z,16.77
2018-11-12T22:09:07.144Z,17.13
2018-11-12T22:11:35.318Z,17.23
2018-11-12T22:14:03.834Z,17.23
2018-11-12T22:16:32.096Z,16.87
2018-11-12T22:19:00.224Z,14.87
2018-11-12T22:21:28.463Z,14.20
2018-11-12T22:23:56.637Z,13.03
2018-11-12T22:26:24.780Z,12.73
2018-11-12T22:28:52.893Z,13.93
2018-11-12T22:31:21.059Z,13.47
2018-11-12T22:33:49.191Z,14.67
2018-11-12T22:36:17.405Z,17.30
2018-11-12T22:38:45.513Z,15.00
2018-11-12T22:41:13.678Z,16.20
2018-11-12T22:43:48.544Z,16.20
2018-11-12T22:46:16.779Z,16.47
2018-11-12T22:48:44.894Z,16.77
2018-11-12T22:51:13.045Z,16.47
2018-11-12T22:53:41.243Z,15.37
2018-11-12T22:56:09.316Z,15.13
2018-11-12T22:58:37.486Z,19.57
2018-11-12T23:01:05.781Z,18.03
2018-11-12T23:03:34.401Z,18.07
2018-11-12T23:06:08.115Z,15.37
2018-11-12T23:08:36.267Z,14.50
2018-11-12T23:11:04.631Z,13.43
2018-11-12T23:13:32.801Z,13.90
2018-11-12T23:16:01.655Z,13.70
2018-11-12T23:18:30.061Z,14.00
2018-11-12T23:20:58.221Z,14.00
2018-11-12T23:23:26.408Z,12.67
2018-11-12T23:25:55.414Z,16.37
2018-11-12T23:28:23.527Z,21.20
2018-11-12T23:30:51.739Z,16.80
2018-11-12T23:33:20.361Z,16.57
2018-11-12T23:35:48.469Z,18.20
2018-11-12T23:38:16.640Z,17.60
2018-11-12T23:40:45.852Z,16.17
2018-11-12T23:43:14.199Z,15.33
2018-11-12T23:45:42.382Z,13.60
2018-11-12T23:48:10.540Z,12.30
2018-11-12T23:50:38.650Z,10.20
2018-11-12T23:53:06.816Z,13.40
2018-11-12T23:55:34.917Z,15.27
2018-11-12T23:58:03.089Z,15.73
